Time;durP1;ratioP1;P1;durP2;ratioP2;P2;SDS_P1;SDS_P2;PMS_P1;PMS_P2;Temp;Humidity;BMP_temperature;BMP_pressure;BME280_temperature;BME280_humidity;BME280_pressure;Samples;Min_cycle;Max_cycle;Signal;HPM_P1;HPM_P2
2021/12/15 00:01:37;;;;;;;55.07;24.90;;;;;;;0.02;100.00;100162.01;1582205;91;21022;-73
2021/12/15 00:04:04;;;;;;;41.23;18.83;;;;;;;0.03;100.00;100175.66;1582237;91;21102;-74
2021/12/15 00:06:31;;;;;;;48.57;22.20;;;;;;;0.05;100.00;100195.02;1599653;89;21089;-74
2021/12/15 00:09:00;;;;;;;43.20;19.83;;;;;;;0.06;100.00;100203.38;1636648;87;21069;-74
2021/12/15 00:11:36;;;;;;;40.23;19.07;;;;;;;0.06;100.00;100207.38;1636972;87;21082;-74
2021/12/15 00:14:05;;;;;;;42.50;18.87;;;;;;;0.05;100.00;100210.97;1629789;87;21073;-72
2021/12/15 00:16:32;;;;;;;41.73;17.33;;;;;;;0.08;100.00;100225.89;1627754;88;21116;-73
2021/12/15 00:18:59;;;;;;;39.23;17.47;;;;;;;0.10;100.00;100223.98;1627643;88;21029;-72
2021/12/15 00:21:26;;;;;;;38.77;17.90;;;;;;;0.14;100.00;100222.36;1627558;88;21057;-73
2021/12/15 00:23:53;;;;;;;39.57;19.00;;;;;;;0.18;100.00;100220.36;1627695;88;21024;-75
2021/12/15 00:26:20;;;;;;;41.13;17.53;;;;;;;0.21;100.00;100213.48;1627973;88;21079;-75
2021/12/15 00:28:47;;;;;;;39.20;17.73;;;;;;;0.22;100.00;100207.23;1627921;88;21051;-73
2021/12/15 00:31:14;;;;;;;36.80;17.20;;;;;;;0.22;100.00;100209.88;1627702;87;21057;-76
2021/12/15 00:33:42;;;;;;;38.93;18.83;;;;;;;0.21;100.00;100200.19;1627595;88;21547;-73
2021/12/15 00:36:09;;;;;;;38.80;18.00;;;;;;;0.21;100.00;100193.54;1627713;87;21040;-75
2021/12/15 00:38:36;;;;;;;38.83;17.53;;;;;;;0.23;100.00;100178.81;1627509;88;21053;-75
2021/12/15 00:41:04;;;;;;;36.53;17.03;;;;;;;0.21;100.00;100185.56;1607979;88;21519;-74
2021/12/15 00:43:31;;;;;;;37.10;17.63;;;;;;;0.22;100.00;100187.77;1628003;88;21045;-76
2021/12/15 00:46:01;;;;;;;41.67;17.83;;;;;;;0.23;100.00;100189.45;1627707;88;21057;-74
2021/12/15 00:48:28;;;;;;;34.90;17.03;;;;;;;0.23;100.00;100173.04;1627494;88;21080;-75
2021/12/15 00:50:55;;;;;;;36.87;17.17;;;;;;;0.21;100.00;100179.39;1627761;88;20997;-72
2021/12/15 00:53:22;;;;;;;38.07;18.10;;;;;;;0.20;100.00;100185.69;1628068;88;21578;-74
2021/12/15 00:55:49;;;;;;;37.13;17.80;;;;;;;0.22;100.00;100177.97;1628114;88;21502;-75
2021/12/15 00:58:16;;;;;;;39.87;18.80;;;;;;;0.25;100.00;100182.22;1628065;88;21097;-74
2021/12/15 01:00:52;;;;;;;44.27;21.60;;;;;;;0.26;100.00;100179.95;1629663;87;21042;-74
2021/12/15 01:03:20;;;;;;;38.70;18.03;;;;;;;0.26;100.00;100170.64;1634309;87;21084;-74
2021/12/15 01:05:50;;;;;;;38.73;19.17;;;;;;;0.26;100.00;100176.80;1641528;87;21129;-74
2021/12/15 01:08:21;;;;;;;37.13;17.83;;;;;;;0.23;100.00;100174.37;1634966;87;21255;-74
2021/12/15 01:11:17;;;;;;;46.70;23.13;;;;;;;0.20;100.00;100169.73;1641328;87;21064;-74
2021/12/15 01:22:04;;;;;;;162.90;72.47;;;;;;;0.17;100.00;100184.91;1653132;86;21174;-74
2021/12/15 01:24:31;;;;;;;70.50;33.90;;;;;;;0.18;100.00;100182.64;1652546;87;21022;-74
2021/12/15 01:26:58;;;;;;;79.23;36.37;;;;;;;0.20;100.00;100180.37;1652845;87;21018;-74
2021/12/15 01:29:27;;;;;;;111.67;51.53;;;;;;;0.20;100.00;100182.54;1652619;87;21078;-76
2021/12/15 01:31:54;;;;;;;79.03;38.67;;;;;;;0.18;100.00;100183.97;1652832;87;21026;-75
2021/12/15 01:34:21;;;;;;;37.63;19.40;;;;;;;0.17;100.00;100178.75;1652754;86;21070;-73
2021/12/15 01:36:48;;;;;;;50.70;26.03;;;;;;;0.18;100.00;100191.10;1669653;86;21101;-74
2021/12/15 01:39:15;;;;;;;51.97;26.40;;;;;;;0.21;100.00;100187.38;1669819;86;21030;-73
2021/12/15 01:41:43;;;;;;;36.87;17.30;;;;;;;0.23;100.00;100180.14;1652643;87;21658;-75
2021/12/15 01:46:59;;;;;;;32.47;16.93;;;;;;;0.25;100.00;100192.86;1652762;87;21037;-74
2021/12/15 01:49:36;;;;;;;34.03;16.50;;;;;;;0.23;100.00;100191.66;1607921;89;21061;-74
2021/12/15 01:52:13;;;;;;;34.90;16.73;;;;;;;0.25;100.00;100195.52;1577820;91;21572;-75
2021/12/15 01:54:44;;;;;;;33.83;17.07;;;;;;;0.24;100.00;100197.33;1558554;92;21118;-73
2021/12/15 01:57:11;;;;;;;200.00;91.83;;;;;;;0.24;100.00;100192.02;1607788;89;21030;-73
2021/12/15 01:59:40;;;;;;;41.33;19.93;;;;;;;0.27;100.00;100197.63;1613256;87;21537;-74
2021/12/15 02:02:07;;;;;;;30.63;14.90;;;;;;;0.26;100.00;100199.41;1626588;88;21549;-75
2021/12/15 02:04:34;;;;;;;47.20;22.30;;;;;;;0.26;100.00;100203.40;1619997;89;21530;-75
2021/12/15 02:07:03;;;;;;;133.80;65.20;;;;;;;0.28;100.00;100207.29;1626424;88;21124;-75
2021/12/15 02:12:07;;;;;;;61.30;30.70;;;;;;;0.30;100.00;100211.58;1612093;89;21076;-75
2021/12/15 02:14:34;;;;;;;217.70;105.40;;;;;;;0.32;100.00;100207.00;1612432;89;21596;-74
2021/12/15 02:17:01;;;;;;;44.67;22.03;;;;;;;0.31;100.00;100214.59;1612436;89;21571;-75
2021/12/15 02:19:28;;;;;;;43.03;22.13;;;;;;;0.32;100.00;100214.10;1612397;89;21049;-74
2021/12/15 02:21:54;;;;;;;73.63;36.30;;;;;;;0.33;100.00;100214.01;1612376;89;21009;-74
2021/12/15 02:24:23;;;;;;;50.37;25.13;;;;;;;0.35;100.00;100212.58;1612522;89;21045;-74
2021/12/15 02:26:56;;;;;;;33.10;16.20;;;;;;;0.34;100.00;100213.55;1612037;89;21057;-75
2021/12/15 02:29:20;;;;;;;28.80;14.43;;;;;;;0.37;100.00;100212.00;1588653;89;21009;-75
2021/12/15 02:34:32;;;;;;;50.17;24.90;;;;;;;0.39;100.00;100214.11;1612263;89;21033;-76
2021/12/15 02:39:36;;;;;;;33.10;17.10;;;;;;;0.43;100.00;100210.77;1612386;89;21009;-74
2021/12/15 02:42:04;;;;;;;55.20;26.57;;;;;;;0.42;100.00;100207.23;1612285;89;21037;-75
2021/12/15 02:44:31;;;;;;;59.70;29.17;;;;;;;0.43;100.00;100212.09;1612309;89;21583;-75
2021/12/15 02:46:58;;;;;;;44.53;22.03;;;;;;;0.44;100.00;100215.11;1588770;89;21139;-75
2021/12/15 02:49:27;;;;;;;38.63;20.23;;;;;;;0.44;100.00;100219.95;1584109;89;21029;-75
2021/12/15 02:51:56;;;;;;;57.90;29.63;;;;;;;0.46;100.00;100217.19;1623027;88;21090;-75
2021/12/15 02:54:23;;;;;;;52.77;25.57;;;;;;;0.46;100.00;100218.52;1684354;85;21013;-75
2021/12/15 02:56:52;;;;;;;47.80;22.93;;;;;;;0.49;100.00;100216.50;1684322;85;21527;-75
2021/12/15 02:59:26;;;;;;;55.43;29.43;;;;;;;0.51;100.00;100216.41;1684288;85;21031;-74
2021/12/15 03:02:08;;;;;;;31.70;15.83;;;;;;;0.51;100.00;100212.41;1679523;85;21046;-75
2021/12/15 03:15:31;;;;;;;43.77;23.23;;;;;;;0.38;100.00;100209.23;1570790;91;21041;-74
2021/12/15 03:18:18;;;;;;;98.70;40.13;;;;;;;0.34;100.00;100207.75;1570664;91;21074;-75
2021/12/15 03:20:57;;;;;;;36.93;20.63;;;;;;;0.31;100.00;100211.93;1570867;91;21053;-73
2021/12/15 03:23:34;;;;;;;31.47;17.97;;;;;;;0.29;100.00;100209.85;1564151;88;21114;-74
2021/12/15 03:26:01;;;;;;;35.40;18.83;;;;;;;0.26;100.00;100213.19;1564489;92;21094;-74
2021/12/15 03:37:06;;;;;;;65.70;36.20;;;;;;;0.27;100.00;100218.91;1564316;92;21081;-75
2021/12/15 03:39:20;;;;;;;26.33;13.60;;;;;;;0.27;100.00;100222.41;1561321;92;21054;-75
2021/12/15 03:41:55;;;;;;;40.90;20.80;;;;;;;0.30;100.00;100224.88;1564276;92;21096;-74
2021/12/15 03:44:17;;;;;;;224.87;92.33;;;;;;;0.34;100.00;100218.88;1561499;92;21085;-74
2021/12/15 03:46:46;;;;;;;135.20;64.57;;;;;;;0.37;100.00;100223.52;1579523;90;21106;-74
2021/12/15 03:49:12;;;;;;;413.00;165.00;;;;;;;0.39;100.00;100231.40;1600298;90;21604;-75
2021/12/15 03:51:39;;;;;;;238.73;98.63;;;;;;;0.40;100.00;100233.08;1600425;90;21617;-74
2021/12/15 03:54:06;;;;;;;98.73;45.77;;;;;;;0.42;100.00;100229.84;1600210;90;21680;-76
2021/12/15 03:56:36;;;;;;;283.53;108.57;;;;;;;0.47;100.00;100234.87;1600370;90;21077;-75
2021/12/15 03:59:04;;;;;;;119.37;50.97;;;;;;;0.50;100.00;100234.19;1624801;88;21026;-75
2021/12/15 04:01:30;;;;;;;28.03;14.40;;;;;;;0.50;100.00;100232.86;1611278;88;21114;-74
2021/12/15 04:03:58;;;;;;;31.30;15.57;;;;;;;0.50;100.00;100232.86;1610521;89;21308;-74
2021/12/15 04:06:28;;;;;;;22.83;12.03;;;;;;;0.48;100.00;100231.23;1610473;89;21100;-74
2021/12/15 04:08:55;;;;;;;22.90;12.17;;;;;;;0.47;100.00;100233.05;1610821;89;21029;-73
2021/12/15 04:11:24;;;;;;;21.10;11.40;;;;;;;0.48;100.00;100234.77;1610811;88;21053;-76
2021/12/15 04:13:52;;;;;;;20.83;10.80;;;;;;;0.47;100.00;100227.73;1610878;89;21085;-74
2021/12/15 04:16:41;;;;;;;28.77;14.40;;;;;;;0.47;100.00;100226.40;1610753;89;21086;-75
2021/12/15 04:18:54;;;;;;;23.60;11.97;;;;;;;0.46;100.00;100229.16;1607715;89;21633;-75
2021/12/15 04:21:22;;;;;;;28.20;14.43;;;;;;;0.46;100.00;100234.48;1632707;87;21636;-74
2021/12/15 04:23:54;;;;;;;24.97;13.20;;;;;;;0.43;100.00;100234.22;1621118;88;21579;-73
2021/12/15 04:26:21;;;;;;;22.10;11.50;;;;;;;0.43;100.00;100237.37;1621245;88;21519;-72
2021/12/15 04:28:48;;;;;;;23.90;12.43;;;;;;;0.42;100.00;100235.16;1621062;88;21080;-74
2021/12/15 04:31:19;;;;;;;23.37;11.43;;;;;;;0.40;100.00;100229.09;1655635;86;21072;-72
2021/12/15 04:34:03;;;;;;;21.10;10.83;;;;;;;0.39;100.00;100231.40;1655519;87;21565;-74
2021/12/15 04:36:36;;;;;;;23.03;12.17;;;;;;;0.36;100.00;100240.90;1634767;88;21064;-76
2021/12/15 04:39:05;;;;;;;21.80;11.30;;;;;;;0.34;100.00;100233.50;1580455;91;21105;-73
2021/12/15 04:41:32;;;;;;;18.70;11.00;;;;;;;0.30;100.00;100227.53;1580788;91;21049;-74
2021/12/15 04:44:01;;;;;;;20.53;13.23;;;;;;;0.30;100.00;100227.53;1580714;91;21085;-75
2021/12/15 04:46:34;;;;;;;20.67;11.23;;;;;;;0.31;100.00;100228.38;1580486;91;21157;-74
2021/12/15 04:49:02;;;;;;;19.45;10.60;;;;;;;0.32;100.00;100231.39;1551585;92;21098;-74
2021/12/15 04:51:30;;;;;;;18.73;9.50;;;;;;;0.31;100.00;100228.38;1580831;91;21033;-75
2021/12/15 04:53:58;;;;;;;19.53;10.60;;;;;;;0.30;100.00;100230.65;1580677;91;21176;-74
2021/12/15 04:56:25;;;;;;;18.27;10.00;;;;;;;0.30;100.00;100231.98;1580845;91;21049;-73
2021/12/15 04:58:53;;;;;;;19.37;9.57;;;;;;;0.29;100.00;100233.80;1580960;91;21061;-74
2021/12/15 05:01:20;;;;;;;19.93;11.93;;;;;;;0.28;100.00;100222.77;1580858;89;21238;-73
2021/12/15 05:03:47;;;;;;;21.77;10.70;;;;;;;0.27;100.00;100219.75;1581047;91;21094;-74
2021/12/15 05:06:14;;;;;;;19.57;10.57;;;;;;;0.29;100.00;100222.31;1580610;91;21583;-74
2021/12/15 05:08:45;;;;;;;18.77;9.87;;;;;;;0.29;100.00;100220.98;1553641;92;21086;-74
2021/12/15 05:11:12;;;;;;;17.07;9.33;;;;;;;0.26;100.00;100220.69;1576041;91;21036;-74
2021/12/15 05:13:39;;;;;;;19.57;9.90;;;;;;;0.26;100.00;100231.81;1612942;89;21070;-74
2021/12/15 05:16:06;;;;;;;18.73;9.53;;;;;;;0.24;100.00;100228.41;1612663;89;21044;-74
2021/12/15 05:18:35;;;;;;;18.47;9.83;;;;;;;0.20;100.00;100227.75;1612885;89;21092;-74
2021/12/15 05:21:04;;;;;;;19.63;10.80;;;;;;;0.17;100.00;100229.27;1612691;89;21145;-73
2021/12/15 05:23:33;;;;;;;19.13;10.80;;;;;;;0.14;100.00;100231.67;1612859;89;21048;-74
2021/12/15 05:26:00;;;;;;;20.77;11.90;;;;;;;0.14;100.00;100235.66;1612542;89;21088;-73
2021/12/15 05:28:27;;;;;;;20.67;10.67;;;;;;;0.13;100.00;100233.94;1612654;89;21685;-73
2021/12/15 05:30:56;;;;;;;19.77;11.10;;;;;;;0.13;100.00;100231.77;1612734;89;21075;-74
2021/12/15 05:33:24;;;;;;;34.77;19.53;;;;;;;0.12;100.00;100234.88;1610615;89;21070;-74
2021/12/15 05:35:51;;;;;;;22.70;14.57;;;;;;;0.12;100.00;100236.69;1640311;86;21532;-73
2021/12/15 05:38:18;;;;;;;22.23;12.73;;;;;;;0.12;100.00;100239.35;1669350;86;21068;-74
2021/12/15 05:40:45;;;;;;;38.07;24.43;;;;;;;0.13;100.00;100235.75;1669724;86;21203;-74
2021/12/15 05:43:13;;;;;;;37.00;22.00;;;;;;;0.11;100.00;100237.66;1669448;86;21068;-74
2021/12/15 05:45:40;;;;;;;33.80;21.57;;;;;;;0.10;100.00;100238.12;1669699;86;21040;-74
2021/12/15 05:48:11;;;;;;;90.43;55.03;;;;;;;0.12;100.00;100232.70;1669762;86;21039;-74
2021/12/15 05:50:39;;;;;;;25.53;15.13;;;;;;;0.15;100.00;100232.52;1669292;86;21075;-75
2021/12/15 05:53:06;;;;;;;22.17;13.03;;;;;;;0.15;100.00;100233.84;1669363;86;21038;-72
2021/12/15 05:55:34;;;;;;;25.20;15.67;;;;;;;0.15;100.00;100233.84;1669498;86;21119;-73
2021/12/15 05:58:02;;;;;;;23.13;13.83;;;;;;;0.15;100.00;100235.17;1669633;86;20981;-72
2021/12/15 06:00:31;;;;;;;23.40;14.77;;;;;;;0.15;100.00;100229.38;1668457;86;21046;-74
2021/12/15 06:02:58;;;;;;;23.10;12.90;;;;;;;0.16;100.00;100223.11;1695913;84;21547;-73
2021/12/15 06:05:25;;;;;;;33.40;17.00;;;;;;;0.15;100.00;100225.38;1695699;85;21056;-74
2021/12/15 06:07:54;;;;;;;25.00;14.13;;;;;;;0.15;100.00;100227.20;1694908;85;21073;-75
2021/12/15 06:10:25;;;;;;;34.53;18.33;;;;;;;0.17;100.00;100227.94;1651060;86;21034;-73
2021/12/15 06:12:55;;;;;;;50.15;27.27;;;;;;;0.17;100.00;100234.11;1659828;86;21523;-74
2021/12/15 06:15:25;;;;;;;62.00;35.03;;;;;;;0.17;100.00;100236.77;1664837;85;21548;-73
2021/12/15 06:17:56;;;;;;;25.17;13.93;;;;;;;0.18;100.00;100241.14;1667777;85;21598;-74
2021/12/15 06:20:23;;;;;;;23.97;14.30;;;;;;;0.20;100.00;100249.03;1667057;85;21956;-73
2021/12/15 06:25:22;;;;;;;26.93;17.10;;;;;;;0.24;100.00;100249.20;1614676;87;21561;-72
2021/12/15 06:27:49;;;;;;;29.77;15.87;;;;;;;0.25;100.00;100246.92;1611177;89;21094;-74
2021/12/15 06:30:16;;;;;;;33.07;18.67;;;;;;;0.27;100.00;100250.34;1611361;89;21518;-74
2021/12/15 06:32:43;;;;;;;53.67;27.47;;;;;;;0.27;100.00;100246.34;1617064;87;21032;-75
2021/12/15 06:35:10;;;;;;;41.13;22.17;;;;;;;0.30;100.00;100250.14;1617471;87;21051;-73
2021/12/15 06:37:37;;;;;;;27.00;15.03;;;;;;;0.32;100.00;100256.20;1616488;87;21542;-75
2021/12/15 06:40:08;;;;;;;32.80;19.13;;;;;;;0.32;100.00;100254.88;1612507;89;21064;-73
2021/12/15 06:42:37;;;;;;;48.17;29.48;;;;;;;0.34;100.00;100259.62;1636205;87;21090;-74
2021/12/15 06:45:06;;;;;;;41.50;25.60;;;;;;;0.35;100.00;100249.37;1636701;88;21058;-75
2021/12/15 06:57:16;;;;;;;42.07;26.23;;;;;;;0.37;100.00;100262.09;1627539;88;21028;-73
2021/12/15 06:58:24;;;;;;;47.53;26.63;;;;;;;0.43;100.00;100267.96;1615427;87;21035;-75
2021/12/15 07:00:54;;;;;;;102.83;43.03;;;;;;;0.45;100.00;100270.04;1609853;88;21043;-77
2021/12/15 07:03:21;;;;;;;61.13;35.57;;;;;;;0.47;100.00;100265.47;1603195;88;21518;-74
2021/12/15 07:05:49;;;;;;;55.47;32.37;;;;;;;0.49;100.00;100268.88;1604654;89;21116;-72
2021/12/15 07:08:16;;;;;;;49.00;29.30;;;;;;;0.52;100.00;100274.84;1605246;89;21061;-73
2021/12/15 07:10:47;;;;;;;48.10;30.87;;;;;;;0.54;100.00;100272.09;1616246;88;21282;-73
2021/12/15 07:13:15;;;;;;;42.00;24.43;;;;;;;0.56;100.00;100272.84;1626845;88;21545;-71
2021/12/15 07:15:42;;;;;;;36.73;20.53;;;;;;;0.58;100.00;100271.41;1626839;88;21056;-73
2021/12/15 07:18:11;;;;;;;49.20;26.13;;;;;;;0.59;100.00;100274.45;1626423;88;21047;-74
2021/12/15 07:20:47;;;;;;;39.53;25.47;;;;;;;0.59;100.00;100274.45;1626281;88;21099;-73
2021/12/15 07:23:14;;;;;;;38.13;27.65;;;;;;;0.60;100.00;100269.01;1622946;88;21060;-73
2021/12/15 07:25:43;;;;;;;40.63;23.87;;;;;;;0.61;100.00;100270.73;1553565;92;21618;-72
2021/12/15 07:28:10;;;;;;;42.37;27.73;;;;;;;0.61;100.00;100269.39;1562466;91;21354;-72
2021/12/15 07:30:38;;;;;;;59.50;46.13;;;;;;;0.63;100.00;100274.13;1581944;91;21038;-73
2021/12/15 07:33:06;;;;;;;284.83;117.60;;;;;;;0.66;100.00;100264.63;1581593;91;21388;-73
2021/12/15 07:35:34;;;;;;;197.50;74.97;;;;;;;0.70;100.00;100263.94;1581666;91;21113;-73
2021/12/15 07:38:00;;;;;;;110.60;46.63;;;;;;;0.72;100.00;100264.20;1581816;91;21112;-73
2021/12/15 07:40:27;;;;;;;49.00;32.23;;;;;;;0.70;100.00;100263.45;1582262;91;21026;-73
2021/12/15 07:43:06;;;;;;;58.07;33.57;;;;;;;0.67;100.00;100257.00;1582187;91;21010;-76
2021/12/15 07:45:27;;;;;;;57.55;36.38;;;;;;;0.75;100.00;100253.36;1562664;91;21676;-72
2021/12/15 07:47:57;;;;;;;53.53;38.87;;;;;;;0.75;100.00;100253.36;1557132;91;21064;-73
2021/12/15 07:50:26;;;;;;;50.10;33.40;;;;;;;0.79;100.00;100246.02;1548613;92;21537;-71
2021/12/15 07:52:53;;;;;;;39.27;25.90;;;;;;;0.82;100.00;100243.64;1548980;93;21074;-74
2021/12/15 07:55:20;;;;;;;51.77;34.67;;;;;;;0.86;100.00;100245.13;1524438;93;21102;-67
2021/12/15 07:57:49;;;;;;;71.40;50.67;;;;;;;0.89;100.00;100246.27;1539126;93;21127;-69
2021/12/15 08:00:16;;;;;;;49.67;32.67;;;;;;;0.92;100.00;100248.69;1539257;92;21400;-70
2021/12/15 08:02:43;;;;;;;49.87;31.67;;;;;;;0.94;100.00;100252.13;1549644;92;21097;-69
2021/12/15 08:05:11;;;;;;;55.27;37.67;;;;;;;0.98;100.00;100248.78;1553206;91;21157;-68
2021/12/15 08:07:39;;;;;;;55.23;38.50;;;;;;;0.98;100.00;100245.62;1556276;90;21710;-69
2021/12/15 08:10:09;;;;;;;46.97;31.00;;;;;;;0.98;100.00;100242.12;1551106;90;21112;-69
2021/12/15 08:12:39;;;;;;;62.70;43.43;;;;;;;0.99;100.00;100240.66;1549964;92;21102;-68
2021/12/15 08:15:07;;;;;;;49.53;33.33;;;;;;;0.99;100.00;100232.67;1548996;92;21102;-73
2021/12/15 08:17:37;;;;;;;51.60;32.77;;;;;;;1.02;100.00;100232.95;1546918;90;21603;-73
2021/12/15 08:20:06;;;;;;;52.70;34.57;;;;;;;1.00;100.00;100223.73;1549779;91;21022;-71
2021/12/15 08:22:33;;;;;;;45.47;26.80;;;;;;;1.01;100.00;100221.92;1552213;90;21117;-71
2021/12/15 08:25:00;;;;;;;50.30;32.20;;;;;;;1.01;100.00;100222.80;1552203;91;21160;-71
2021/12/15 08:27:27;;;;;;;50.37;33.70;;;;;;;1.00;100.00;100222.89;1551046;92;21587;-71
2021/12/15 08:29:54;;;;;;;43.00;27.53;;;;;;;1.00;100.00;100225.55;1624072;88;21093;-71
2021/12/15 08:32:21;;;;;;;59.47;37.47;;;;;;;1.00;100.00;100217.57;1631050;88;20963;-71
2021/12/15 08:34:48;;;;;;;45.23;30.23;;;;;;;1.01;100.00;100213.93;1629433;88;21092;-71
2021/12/15 08:37:15;;;;;;;36.87;25.53;;;;;;;1.04;100.00;100223.05;1665978;86;21017;-69
2021/12/15 08:39:44;;;;;;;43.23;30.90;;;;;;;1.00;100.00;100219.74;1670538;84;21041;-69
2021/12/15 08:42:11;;;;;;;82.47;47.77;;;;;;;0.97;100.00;100215.11;1673272;84;20986;-69
2021/12/15 08:44:38;;;;;;;60.90;40.43;;;;;;;0.92;100.00;100212.30;1669727;84;21112;-69
2021/12/15 08:47:06;;;;;;;85.43;56.27;;;;;;;0.94;100.00;100211.70;1667112;84;20978;-67
2021/12/15 08:49:34;;;;;;;38.53;26.83;;;;;;;0.98;100.00;100202.18;1671739;84;21061;-72
2021/12/15 08:52:00;;;;;;;31.07;22.07;;;;;;;1.01;100.00;100197.95;1671930;84;21027;-72
2021/12/15 08:54:27;;;;;;;35.60;23.03;;;;;;;1.03;100.00;100198.73;1673313;84;21028;-73
2021/12/15 08:56:55;;;;;;;31.13;19.17;;;;;;;1.04;100.00;100193.27;1635451;86;21030;-71
2021/12/15 08:59:22;;;;;;;26.33;16.73;;;;;;;1.04;100.00;100188.43;1610570;87;21034;-72
2021/12/15 09:01:50;;;;;;;37.53;25.63;;;;;;;1.03;100.00;100174.76;1630351;87;21543;-73
2021/12/15 09:04:19;;;;;;;30.60;19.47;;;;;;;1.00;100.00;100177.14;1640213;86;21065;-72
2021/12/15 09:06:46;;;;;;;33.60;21.80;;;;;;;0.98;100.00;100181.72;1640185;86;21522;-73
2021/12/15 09:09:14;;;;;;;28.20;17.80;;;;;;;0.99;100.00;100179.41;1643031;86;20980;-72
2021/12/15 09:11:41;;;;;;;29.63;17.67;;;;;;;1.00;100.00;100179.80;1673769;84;21089;-72
2021/12/15 09:14:10;;;;;;;47.60;32.77;;;;;;;1.01;100.00;100173.98;1665469;84;21033;-73
2021/12/15 09:16:39;;;;;;;54.03;40.87;;;;;;;1.02;100.00;100160.56;1665297;85;21112;-70
2021/12/15 09:19:07;;;;;;;62.30;39.77;;;;;;;1.05;100.00;100163.03;1672862;84;21136;-72
2021/12/15 09:21:35;;;;;;;39.27;23.90;;;;;;;1.07;100.00;100162.44;1669953;84;21022;-71
2021/12/15 09:24:05;;;;;;;33.07;22.53;;;;;;;1.09;100.00;100157.84;1683475;84;21042;-70
2021/12/15 09:26:32;;;;;;;42.93;28.47;;;;;;;1.10;100.00;100159.56;1678869;84;21056;-71
2021/12/15 09:28:59;;;;;;;45.70;29.70;;;;;;;1.13;100.00;100153.16;1681869;84;21033;-72
2021/12/15 09:31:26;;;;;;;36.27;23.73;;;;;;;1.13;100.00;100154.03;1682251;85;21114;-71
2021/12/15 09:33:54;;;;;;;36.10;24.57;;;;;;;1.15;100.00;100161.89;1679720;85;21503;-72
2021/12/15 09:36:21;;;;;;;30.50;19.63;;;;;;;1.19;100.00;100161.19;1674238;84;21583;-72
2021/12/15 09:38:53;;;;;;;28.23;19.13;;;;;;;1.19;100.00;100162.52;1684083;84;21193;-73
2021/12/15 09:41:20;;;;;;;46.50;32.90;;;;;;;1.18;100.00;100156.35;1690035;84;21166;-71
2021/12/15 09:43:48;;;;;;;68.20;45.13;;;;;;;1.20;100.00;100157.58;1685692;84;21510;-70
2021/12/15 10:02:58;;;;;;;29.93;19.70;;;;;;;1.12;100.00;100155.47;1583317;89;21051;-71
2021/12/15 10:11:10;;;;;;;26.03;16.43;;;;;;;1.17;100.00;100153.79;1480933;95;21181;-71
2021/12/15 10:19:28;;;;;;;31.97;21.93;;;;;;;1.20;100.00;100146.92;1529124;92;21602;-71
2021/12/15 10:22:10;;;;;;;23.23;13.63;;;;;;;1.19;100.00;100150.08;1495462;93;21102;-71
2021/12/15 10:24:52;;;;;;;25.85;16.67;;;;;;;1.20;100.00;100151.77;1506455;94;21081;-71
2021/12/15 10:27:46;;;;;;;34.30;21.70;;;;;;;1.19;100.00;100143.42;1499907;94;21200;-71
2021/12/15 10:30:34;;;;;;;38.93;26.33;;;;;;;1.17;100.00;100143.14;1492234;95;21226;-71
2021/12/15 10:33:06;;;;;;;42.47;30.93;;;;;;;1.15;100.00;100149.90;1479348;96;21074;-69
2021/12/15 10:35:46;;;;;;;59.77;35.77;;;;;;;1.17;100.00;100141.80;1495375;95;21177;-72
2021/12/15 10:38:21;;;;;;;34.77;24.50;;;;;;;1.23;100.00;100144.05;1513182;94;21669;-75
2021/12/15 10:41:12;;;;;;;22.63;14.63;;;;;;;1.28;100.00;100145.91;1487025;95;21094;-73
2021/12/15 10:43:52;;;;;;;23.00;16.07;;;;;;;1.30;100.00;100154.16;1479163;96;21147;-71
2021/12/15 10:46:33;;;;;;;23.90;15.97;;;;;;;1.32;100.00;100140.73;1503998;94;21105;-70
2021/12/15 10:49:10;;;;;;;28.40;19.03;;;;;;;1.29;100.00;100139.15;1499432;94;21105;-72
2021/12/15 10:51:51;;;;;;;24.87;14.80;;;;;;;1.29;100.00;100144.94;1498656;94;21086;-73
2021/12/15 10:54:35;;;;;;;31.83;21.43;;;;;;;1.29;100.00;100143.14;1507832;94;21164;-70
2021/12/15 10:57:16;;;;;;;26.10;17.73;;;;;;;1.30;100.00;100142.16;1545435;90;21082;-70
2021/12/15 10:59:50;;;;;;;20.20;12.37;;;;;;;1.29;100.00;100140.48;1561286;89;21094;-70
2021/12/15 11:02:25;;;;;;;17.57;9.87;;;;;;;1.30;100.00;100141.32;1534942;92;21130;-70
2021/12/15 11:04:57;;;;;;;18.47;10.50;;;;;;;1.30;100.00;100135.50;1505587;92;21134;-73
2021/12/15 11:07:34;;;;;;;21.23;12.70;;;;;;;1.28;100.00;100135.26;1472995;96;21669;-71
2021/12/15 11:10:14;;;;;;;22.57;14.13;;;;;;;1.28;100.00;100137.92;1450265;98;21146;-71
2021/12/15 11:12:59;;;;;;;19.00;10.80;;;;;;;1.28;100.00;100136.10;1444123;98;21180;-71
2021/12/15 11:15:46;;;;;;;16.32;8.80;;;;;;;1.28;100.00;100134.77;1447824;98;21128;-74
2021/12/15 11:18:20;;;;;;;18.87;10.47;;;;;;;1.28;100.00;100133.44;1388860;103;21600;-73
2021/12/15 11:21:07;;;;;;;34.43;19.83;;;;;;;1.26;100.00;100133.19;1401166;101;21254;-71
2021/12/15 11:23:34;;;;;;;49.10;26.23;;;;;;;1.25;100.00;100128.81;1400679;101;21594;-69
2021/12/15 11:26:08;;;;;;;24.70;13.47;;;;;;;1.25;100.00;100135.47;1400691;101;21114;-72
2021/12/15 11:28:45;;;;;;;82.90;40.57;;;;;;;1.25;100.00;100136.80;1401507;101;21202;-70
2021/12/15 11:31:19;;;;;;;21.23;11.20;;;;;;;1.23;100.00;100144.89;1395791;101;21153;-72
2021/12/15 11:34:01;;;;;;;22.70;12.00;;;;;;;1.22;100.00;100142.34;1403291;101;21798;-71
2021/12/15 11:36:44;;;;;;;38.00;20.00;;;;;;;1.20;100.00;100135.78;1340499;103;21225;-71
2021/12/15 11:39:17;;;;;;;42.62;23.83;;;;;;;1.22;100.00;100129.02;1354981;106;21690;-71
2021/12/15 11:41:48;;;;;;;27.62;14.18;;;;;;;1.23;100.00;100126.73;1355173;106;21107;-69
2021/12/15 11:44:18;;;;;;;27.40;17.37;;;;;;;1.24;100.00;100139.08;1294795;110;21135;-72
2021/12/15 11:46:57;;;;;;;35.77;19.93;;;;;;;1.27;100.00;100137.05;1289536;110;21185;-74
2021/12/15 11:49:29;;;;;;;33.03;18.60;;;;;;;1.30;100.00;100147.49;1284209;110;21187;-74
2021/12/15 11:52:08;;;;;;;32.90;18.23;;;;;;;1.34;100.00;100144.12;1291160;110;22589;-73
2021/12/15 11:54:48;;;;;;;25.07;15.70;;;;;;;1.36;100.00;100144.02;1273729;112;21219;-72
2021/12/15 12:00:23;;;;;;;36.23;23.53;;;;;;;1.40;100.00;100147.70;1234226;115;21196;-72
2021/12/15 12:02:54;;;;;;;31.30;19.98;;;;;;;1.40;100.00;100146.38;1271629;110;21163;-72
2021/12/15 12:05:32;;;;;;;48.30;32.17;;;;;;;1.41;100.00;100153.88;1282867;110;21612;-72
2021/12/15 12:08:03;;;;;;;33.13;20.37;;;;;;;1.42;100.00;100160.44;1283920;110;21207;-73
2021/12/15 12:10:48;;;;;;;24.70;16.02;;;;;;;1.42;100.00;100159.10;1267286;112;21193;-74
2021/12/15 12:13:23;;;;;;;21.30;12.47;;;;;;;1.42;100.00;100155.59;1272052;112;21323;-76
2021/12/15 12:15:52;;;;;;;29.00;20.47;;;;;;;1.41;100.00;100146.72;1284868;110;21753;-75
2021/12/15 12:18:27;;;;;;;25.47;14.87;;;;;;;1.39;100.00;100147.32;1291022;110;21271;-72
2021/12/15 12:20:59;;;;;;;25.53;16.17;;;;;;;1.39;100.00;100146.48;1302890;110;21148;-70
2021/12/15 12:23:30;;;;;;;26.93;16.60;;;;;;;1.41;100.00;100136.55;1234694;115;21178;-69
2021/12/15 12:26:02;;;;;;;24.83;16.10;;;;;;;1.43;100.00;100145.29;1235137;115;21251;-69
2021/12/15 12:28:34;;;;;;;33.73;24.40;;;;;;;1.45;100.00;100143.36;1236265;115;21326;-71
2021/12/15 12:31:08;;;;;;;33.43;19.60;;;;;;;1.47;100.00;100152.09;1230045;115;21215;-72
2021/12/15 12:33:36;;;;;;;23.20;13.80;;;;;;;1.47;100.00;100157.42;1224978;115;21186;-71
2021/12/15 12:36:11;;;;;;;21.97;11.77;;;;;;;1.47;100.00;100170.74;1220035;117;21300;-69
2021/12/15 12:38:42;;;;;;;22.73;12.17;;;;;;;1.47;100.00;100172.95;1214788;117;21293;-74
2021/12/15 12:41:21;;;;;;;20.87;11.83;;;;;;;1.46;100.00;100170.39;1214577;118;21198;-72